Time;durP1;ratioP1;P1;durP2;ratioP2;P2;SDS_P1;SDS_P2;PMS_P1;PMS_P2;Temp;Humidity;BMP_temperature;BMP_pressure;BME280_temperature;BME280_humidity;BME280_pressure;Samples;Min_cycle;Max_cycle;Signal;HPM_P1;HPM_P2
2023/06/08 00:02:17;;;;;;;19.30;8.15;;;;;;;15.94;84.02;101751.31;5011146;28;20034;-74
2023/06/08 00:04:43;;;;;;;19.92;6.93;;;;;;;15.89;84.54;101738.47;5011567;28;20030;-74
2023/06/08 00:07:08;;;;;;;12.98;6.00;;;;;;;15.83;84.67;101738.53;4993871;28;20040;-74
2023/06/08 00:09:36;;;;;;;13.68;6.00;;;;;;;15.80;85.11;101738.91;4994002;28;20121;-75
2023/06/08 00:12:01;;;;;;;18.33;7.07;;;;;;;15.72;84.98;101737.28;4994111;28;20026;-75
2023/06/08 00:14:27;;;;;;;15.55;6.47;;;;;;;15.66;85.33;101741.59;5011426;28;20165;-75
2023/06/08 00:16:52;;;;;;;15.27;6.40;;;;;;;15.66;86.15;101749.66;5011287;28;20034;-75
2023/06/08 00:19:18;;;;;;;13.95;5.80;;;;;;;15.60;86.40;101742.44;5011226;28;20597;-75
2023/06/08 00:21:44;;;;;;;11.75;5.55;;;;;;;15.61;85.97;101752.13;5011324;28;20025;-75
2023/06/08 00:24:10;;;;;;;18.23;6.38;;;;;;;15.53;87.07;101742.41;5011188;28;20084;-75
2023/06/08 00:26:35;;;;;;;14.80;5.45;;;;;;;15.51;86.60;101739.13;4993396;28;20054;-75
2023/06/08 00:29:01;;;;;;;15.10;5.70;;;;;;;15.51;86.61;101740.97;5011161;28;20362;-74
2023/06/08 00:31:26;;;;;;;15.35;5.25;;;;;;;15.50;86.32;101742.03;5010941;28;20080;-76
2023/06/08 00:33:51;;;;;;;17.23;6.88;;;;;;;15.44;86.33;101732.94;5011143;28;20057;-75
2023/06/08 00:36:17;;;;;;;14.88;6.75;;;;;;;15.42;87.03;101739.53;5010995;28;20026;-75
2023/06/08 00:38:42;;;;;;;21.25;8.02;;;;;;;15.32;87.03;101731.88;5010964;28;20038;-76
2023/06/08 00:41:08;;;;;;;14.15;6.53;;;;;;;15.32;87.40;101730.00;4976930;28;20030;-75
2023/06/08 00:43:34;;;;;;;12.00;6.53;;;;;;;15.29;87.46;101727.75;5010847;28;20050;-75
2023/06/08 00:46:01;;;;;;;13.02;6.15;;;;;;;15.26;87.76;101732.72;4993164;28;20033;-74
2023/06/08 00:48:27;;;;;;;15.10;7.45;;;;;;;15.23;88.68;101727.75;5011117;28;20029;-75
2023/06/08 00:50:55;;;;;;;23.42;7.30;;;;;;;15.17;88.48;101721.34;5010643;28;20324;-75
2023/06/08 00:53:22;;;;;;;15.73;7.45;;;;;;;15.18;88.93;101722.19;5010687;28;20026;-74
2023/06/08 00:55:51;;;;;;;15.43;7.63;;;;;;;15.09;89.26;101717.00;5010642;28;20136;-74
2023/06/08 00:58:18;;;;;;;15.80;7.35;;;;;;;15.08;89.52;101726.06;5010661;28;20389;-75
2023/06/08 01:00:46;;;;;;;9.60;5.60;;;;;;;15.05;90.06;101720.28;5010203;28;20029;-74
2023/06/08 01:03:14;;;;;;;15.30;6.85;;;;;;;14.99;90.44;101713.06;5010433;28;20037;-74
2023/06/08 01:05:44;;;;;;;19.55;8.57;;;;;;;14.96;90.65;101726.88;4992651;28;20452;-74
2023/06/08 01:08:22;;;;;;;16.02;6.53;;;;;;;14.89;90.72;101711.59;5010410;28;20037;-75
2023/06/08 01:11:14;;;;;;;17.10;7.13;;;;;;;14.86;89.81;101713.88;5010109;28;20105;-75
2023/06/08 01:13:45;;;;;;;14.85;5.80;;;;;;;14.80;91.00;101723.56;5010148;28;20571;-75
2023/06/08 01:16:15;;;;;;;16.48;6.80;;;;;;;14.72;91.53;101709.47;5009926;28;20026;-75
2023/06/08 01:18:42;;;;;;;16.88;6.28;;;;;;;14.71;92.08;101715.91;5010002;28;20034;-74
2023/06/08 01:21:33;;;;;;;16.75;6.93;;;;;;;14.70;91.07;101720.44;5010031;28;20563;-75
2023/06/08 01:24:02;;;;;;;15.98;6.82;;;;;;;14.65;91.82;101721.03;5010118;28;20097;-74
2023/06/08 01:26:28;;;;;;;22.67;8.15;;;;;;;14.62;92.59;101718.78;4992393;28;20034;-74
2023/06/08 01:28:55;;;;;;;14.18;6.43;;;;;;;14.55;92.37;101709.84;5010223;28;20033;-75
2023/06/08 01:31:21;;;;;;;15.95;7.10;;;;;;;14.53;93.44;101711.91;5010036;28;20038;-75
2023/06/08 01:33:46;;;;;;;16.25;7.10;;;;;;;14.50;93.08;101719.53;5010029;28;20029;-75
2023/06/08 01:36:33;;;;;;;22.90;6.68;;;;;;;14.48;93.79;101712.47;5009965;28;20381;-75
2023/06/08 01:39:11;;;;;;;16.23;6.30;;;;;;;14.44;93.72;101713.94;5009729;28;20037;-74
2023/06/08 01:41:41;;;;;;;17.52;6.75;;;;;;;14.39;93.84;101713.69;5009816;28;20472;-75
2023/06/08 01:44:09;;;;;;;15.60;7.10;;;;;;;14.40;94.27;101715.34;5009850;28;20083;-74
2023/06/08 01:46:34;;;;;;;11.82;6.25;;;;;;;14.37;94.57;101714.94;5009827;28;20025;-74
2023/06/08 01:49:03;;;;;;;14.60;7.22;;;;;;;14.35;94.76;101711.59;5009793;28;20018;-74
2023/06/08 01:51:36;;;;;;;15.00;6.68;;;;;;;14.29;94.72;101710.56;5009494;28;20024;-75
2023/06/08 01:54:04;;;;;;;24.13;7.50;;;;;;;14.23;94.99;101701.47;5009757;28;20026;-75
2023/06/08 01:56:34;;;;;;;14.32;6.60;;;;;;;14.19;95.43;101702.88;5009761;28;20111;-74
2023/06/08 01:58:59;;;;;;;15.35;6.90;;;;;;;14.16;95.29;101699.78;5009211;28;20032;-74
2023/06/08 02:01:25;;;;;;;13.57;5.82;;;;;;;14.11;95.96;101702.22;5009393;28;20037;-74
2023/06/08 02:03:50;;;;;;;13.63;6.68;;;;;;;14.07;96.00;101699.13;5009557;28;20033;-75
2023/06/08 02:06:16;;;;;;;18.90;7.05;;;;;;;13.99;96.26;101694.75;5009544;28;20029;-75
2023/06/08 02:08:41;;;;;;;16.75;6.50;;;;;;;13.95;96.42;101689.97;4991951;28;20026;-74
2023/06/08 02:11:08;;;;;;;20.98;7.03;;;;;;;13.94;96.80;101693.69;5009567;28;20041;-74
2023/06/08 02:13:35;;;;;;;13.30;6.43;;;;;;;13.93;96.62;101690.16;5009387;28;20080;-75
2023/06/08 02:16:01;;;;;;;17.48;6.65;;;;;;;13.84;97.77;101694.03;5009481;28;20033;-74
2023/06/08 02:18:26;;;;;;;13.80;6.88;;;;;;;13.82;97.57;101688.03;5009256;28;20504;-75
2023/06/08 02:20:52;;;;;;;19.00;7.43;;;;;;;13.80;97.56;101687.41;4975708;28;20120;-74
2023/06/08 02:23:17;;;;;;;14.52;6.65;;;;;;;13.75;97.51;101687.16;4991700;28;20053;-74
2023/06/08 02:25:43;;;;;;;15.38;6.25;;;;;;;13.71;98.47;101689.41;5009970;28;20034;-74
2023/06/08 02:28:08;;;;;;;15.85;7.82;;;;;;;13.70;98.54;101690.47;5013199;28;20065;-74
2023/06/08 02:30:33;;;;;;;16.75;6.75;;;;;;;13.68;98.30;101689.00;4995729;28;20389;-74
2023/06/08 02:32:59;;;;;;;16.52;7.07;;;;;;;13.64;99.03;101687.72;5013298;28;20022;-74
2023/06/08 02:35:24;;;;;;;17.17;7.22;;;;;;;13.57;99.31;101683.16;5013215;28;20030;-74
2023/06/08 02:37:50;;;;;;;14.05;6.97;;;;;;;13.56;98.87;101684.16;5013319;28;20077;-75
2023/06/08 02:40:15;;;;;;;17.90;7.25;;;;;;;13.56;99.34;101688.69;5013095;28;20018;-74
2023/06/08 02:42:41;;;;;;;18.38;7.72;;;;;;;13.51;99.23;101693.81;5013150;28;20041;-74
2023/06/08 02:45:06;;;;;;;19.60;8.20;;;;;;;13.45;100.00;101695.44;5013121;28;20092;-75
2023/06/08 02:47:32;;;;;;;15.98;7.18;;;;;;;13.43;100.00;101699.31;5012956;28;20128;-74
2023/06/08 02:49:57;;;;;;;14.68;7.15;;;;;;;13.37;100.00;101696.41;5013055;28;20057;-74
2023/06/08 02:52:23;;;;;;;16.17;6.90;;;;;;;13.33;100.00;101694.28;4995210;28;20030;-74
2023/06/08 02:54:48;;;;;;;19.63;8.63;;;;;;;13.28;100.00;101686.00;5013068;28;20032;-74
2023/06/08 02:57:13;;;;;;;14.57;7.15;;;;;;;13.29;100.00;101690.38;5012837;28;20384;-74
2023/06/08 02:59:40;;;;;;;16.00;6.35;;;;;;;13.27;100.00;101693.22;4995138;28;20029;-75
2023/06/08 03:02:06;;;;;;;17.42;7.50;;;;;;;13.23;100.00;101688.41;5012809;28;20380;-75
2023/06/08 03:04:31;;;;;;;18.38;6.53;;;;;;;13.23;100.00;101689.25;5012797;28;20034;-74
2023/06/08 03:06:56;;;;;;;19.35;7.55;;;;;;;13.19;100.00;101697.88;4995024;28;20049;-74
2023/06/08 03:09:29;;;;;;;16.10;7.95;;;;;;;13.17;100.00;101687.34;4994873;28;20037;-74
2023/06/08 03:11:55;;;;;;;13.27;6.82;;;;;;;13.14;100.00;101685.88;5012611;28;20049;-74
2023/06/08 03:14:28;;;;;;;17.40;7.07;;;;;;;13.11;100.00;101674.72;5012568;28;20072;-74
2023/06/08 03:16:57;;;;;;;16.83;7.00;;;;;;;13.10;100.00;101686.47;5012519;28;20461;-74
2023/06/08 03:19:22;;;;;;;14.73;7.03;;;;;;;13.11;100.00;101680.06;5012312;28;20041;-74
2023/06/08 03:21:49;;;;;;;13.90;6.20;;;;;;;13.08;100.00;101678.63;4994627;28;20050;-74
2023/06/08 03:24:15;;;;;;;17.65;7.05;;;;;;;13.07;100.00;101685.00;5012357;28;20117;-74
2023/06/08 03:26:40;;;;;;;19.52;7.70;;;;;;;13.03;100.00;101677.53;5012081;28;20156;-74
2023/06/08 03:29:05;;;;;;;17.83;6.97;;;;;;;13.02;100.00;101676.72;4994601;28;20041;-74
2023/06/08 03:31:36;;;;;;;18.73;7.35;;;;;;;12.96;100.00;101673.97;4994459;28;20548;-74
2023/06/08 03:34:02;;;;;;;14.43;6.78;;;;;;;12.95;100.00;101681.19;4994549;28;20132;-75
2023/06/08 03:36:33;;;;;;;16.98;7.68;;;;;;;12.91;100.00;101675.34;4994380;28;20036;-74
2023/06/08 03:39:01;;;;;;;24.48;7.72;;;;;;;12.90;100.00;101684.41;5011194;28;20048;-74
2023/06/08 03:41:27;;;;;;;15.02;7.82;;;;;;;12.89;100.00;101687.28;5012035;28;20065;-74
2023/06/08 03:43:52;;;;;;;13.93;7.05;;;;;;;12.85;100.00;101686.03;5011973;28;20068;-74
2023/06/08 03:46:17;;;;;;;21.85;7.60;;;;;;;12.82;100.00;101681.06;4994369;28;20049;-74
2023/06/08 03:48:43;;;;;;;17.05;7.38;;;;;;;12.85;100.00;101686.84;5011711;28;20060;-74
2023/06/08 03:51:08;;;;;;;16.95;6.47;;;;;;;12.84;100.00;101690.56;5011728;28;20045;-74
2023/06/08 03:53:33;;;;;;;20.38;7.95;;;;;;;12.84;100.00;101685.19;5011950;28;20014;-74
2023/06/08 03:55:59;;;;;;;17.08;6.53;;;;;;;12.82;100.00;101691.75;5011766;28;20105;-74
2023/06/08 03:58:24;;;;;;;24.20;8.63;;;;;;;12.80;100.00;101686.59;4978011;28;20485;-74
2023/06/08 04:00:50;;;;;;;14.70;6.75;;;;;;;12.78;100.00;101685.94;5011691;28;20030;-74
2023/06/08 04:03:15;;;;;;;18.17;8.40;;;;;;;12.76;100.00;101695.19;5011431;28;20141;-75
2023/06/08 04:05:41;;;;;;;20.92;9.50;;;;;;;12.72;100.00;101692.88;5011812;28;20065;-75
2023/06/08 04:08:07;;;;;;;15.77;7.10;;;;;;;12.70;100.00;101688.75;5011302;28;20544;-74
2023/06/08 04:10:32;;;;;;;19.27;6.70;;;;;;;12.64;100.00;101682.31;5011412;28;20038;-74
2023/06/08 04:12:58;;;;;;;19.10;8.57;;;;;;;12.65;100.00;101683.13;5011403;28;20025;-74
2023/06/08 04:15:23;;;;;;;17.13;6.72;;;;;;;12.63;100.00;101683.34;5011298;28;20083;-74
2023/06/08 04:17:49;;;;;;;20.45;7.75;;;;;;;12.63;100.00;101683.34;4993884;28;20382;-74
2023/06/08 04:20:15;;;;;;;19.83;7.22;;;;;;;12.63;100.00;101677.16;5011233;28;20030;-74
2023/06/08 04:22:41;;;;;;;20.25;8.10;;;;;;;12.63;100.00;101682.50;5011194;28;20399;-74
2023/06/08 04:25:06;;;;;;;18.65;7.32;;;;;;;12.67;100.00;101683.78;5011328;28;20033;-74
2023/06/08 04:27:34;;;;;;;17.27;8.50;;;;;;;12.69;100.00;101684.41;4993092;28;20054;-74
2023/06/08 04:30:00;;;;;;;15.35;6.95;;;;;;;12.71;100.00;101677.84;5011136;28;20071;-74
2023/06/08 04:32:26;;;;;;;19.55;8.35;;;;;;;12.71;100.00;101675.19;5011080;28;20030;-74
2023/06/08 04:34:51;;;;;;;19.30;7.60;;;;;;;12.79;100.00;101682.25;5010970;28;20473;-75
2023/06/08 04:37:17;;;;;;;18.42;7.10;;;;;;;12.74;100.00;101665.94;5010738;28;20045;-76
2023/06/08 04:39:42;;;;;;;19.48;7.22;;;;;;;12.75;100.00;101682.81;5010889;28;20104;-74
2023/06/08 04:42:08;;;;;;;20.33;7.28;;;;;;;12.77;100.00;101680.78;5010665;28;20058;-75
2023/06/08 04:44:34;;;;;;;16.67;7.47;;;;;;;12.76;100.00;101676.44;5010807;28;20028;-75
2023/06/08 04:47:01;;;;;;;16.38;7.78;;;;;;;12.83;100.00;101677.34;5010827;28;20026;-75
2023/06/08 04:49:30;;;;;;;19.90;7.28;;;;;;;12.89;100.00;101673.88;4993166;28;20033;-74
2023/06/08 04:51:58;;;;;;;21.08;7.60;;;;;;;12.93;100.00;101677.84;5010910;28;20017;-75
2023/06/08 04:54:25;;;;;;;26.52;14.55;;;;;;;12.85;100.00;101675.31;5010810;28;21057;-75
2023/06/08 04:56:53;;;;;;;19.20;8.10;;;;;;;12.89;100.00;101681.91;5010747;28;20033;-75
2023/06/08 04:59:19;;;;;;;18.27;8.20;;;;;;;12.84;100.00;101674.47;5010758;28;20033;-75
2023/06/08 05:01:45;;;;;;;16.90;8.15;;;;;;;12.86;100.00;101682.31;5010250;28;20119;-75
2023/06/08 05:04:10;;;;;;;18.27;8.18;;;;;;;12.89;100.00;101677.41;5010510;28;20143;-75
2023/06/08 05:06:37;;;;;;;17.85;7.13;;;;;;;12.94;100.00;101683.03;5010568;28;20025;-75
2023/06/08 05:09:03;;;;;;;23.20;9.88;;;;;;;12.99;100.00;101685.09;5010487;28;20144;-75
2023/06/08 05:11:28;;;;;;;16.08;7.80;;;;;;;13.13;100.00;101680.72;5010340;28;20113;-75
2023/06/08 05:13:53;;;;;;;14.20;7.43;;;;;;;13.24;100.00;101677.50;5010429;28;20061;-74
2023/06/08 05:16:19;;;;;;;36.88;10.48;;;;;;;13.38;100.00;101681.97;5010348;28;20099;-75
2023/06/08 05:18:44;;;;;;;17.98;7.40;;;;;;;13.48;100.00;101675.44;4992354;28;20030;-74
2023/06/08 05:21:10;;;;;;;21.38;7.75;;;;;;;13.59;98.66;101688.31;4992642;28;20033;-75
2023/06/08 05:23:35;;;;;;;16.45;8.55;;;;;;;13.66;98.05;101691.03;5010071;28;20060;-76
2023/06/08 05:26:01;;;;;;;13.82;7.68;;;;;;;13.70;98.37;101681.56;5010161;28;20100;-75
2023/06/08 05:28:26;;;;;;;21.80;7.78;;;;;;;13.72;97.57;101680.34;5009786;28;20136;-75
2023/06/08 05:30:51;;;;;;;17.88;8.50;;;;;;;13.77;98.08;101677.06;4992274;28;20396;-75
2023/06/08 05:33:17;;;;;;;18.50;7.47;;;;;;;13.84;96.89;101674.44;5010191;28;20061;-75
2023/06/08 05:35:42;;;;;;;21.98;9.15;;;;;;;13.91;97.60;101667.25;5009898;28;20033;-75
2023/06/08 05:38:07;;;;;;;18.15;8.75;;;;;;;13.96;96.33;101675.53;5010061;28;20033;-75
2023/06/08 05:40:34;;;;;;;22.77;7.75;;;;;;;14.02;96.52;101677.44;5009686;28;20109;-75
2023/06/08 05:42:59;;;;;;;20.20;10.60;;;;;;;14.05;94.81;101673.53;5009776;28;20061;-75
2023/06/08 05:45:25;;;;;;;18.25;8.63;;;;;;;14.03;94.71;101671.84;5009670;28;20433;-76
2023/06/08 05:47:51;;;;;;;22.02;9.40;;;;;;;14.01;94.91;101665.03;5009636;28;20050;-76
2023/06/08 05:50:16;;;;;;;19.40;8.23;;;;;;;14.12;95.83;101672.53;5009822;28;20086;-75
2023/06/08 05:52:41;;;;;;;27.02;9.15;;;;;;;14.09;94.41;101662.16;5009314;28;20113;-76
2023/06/08 05:55:07;;;;;;;23.85;9.82;;;;;;;14.27;93.33;101667.00;5009571;28;20034;-76
2023/06/08 05:57:33;;;;;;;17.75;7.95;;;;;;;14.45;93.51;101675.31;4992323;28;20037;-74
2023/06/08 05:59:58;;;;;;;20.33;10.93;;;;;;;14.78;92.64;101671.09;5009589;28;20030;-74
2023/06/08 06:02:23;;;;;;;20.13;8.65;;;;;;;15.00;89.88;101663.66;4991766;28;20030;-74
2023/06/08 06:04:49;;;;;;;17.85;8.45;;;;;;;14.90;89.63;101677.50;5009665;28;20045;-75
2023/06/08 06:07:14;;;;;;;19.75;8.35;;;;;;;14.80;90.93;101664.50;5009667;28;20076;-74
2023/06/08 06:09:39;;;;;;;23.15;9.02;;;;;;;14.76;91.59;101667.78;5009622;28;20075;-74
2023/06/08 06:12:07;;;;;;;19.45;8.50;;;;;;;14.69;91.53;101667.75;5009061;28;20113;-75
2023/06/08 06:14:40;;;;;;;20.60;8.70;;;;;;;14.75;91.48;101661.59;5009254;28;20540;-74
2023/06/08 06:17:06;;;;;;;19.85;8.98;;;;;;;14.67;92.17;101677.88;5009315;28;20112;-75
2023/06/08 06:19:36;;;;;;;24.35;10.68;;;;;;;14.64;91.60;101675.59;5009342;28;20033;-75
2023/06/08 06:22:03;;;;;;;16.85;8.75;;;;;;;14.67;93.03;101673.34;5009418;28;20037;-74
2023/06/08 06:24:28;;;;;;;24.48;9.27;;;;;;;14.74;92.44;101670.66;5009285;28;20515;-74
2023/06/08 06:26:54;;;;;;;18.85;8.27;;;;;;;14.80;92.48;101669.88;5009423;28;20103;-74
2023/06/08 06:29:20;;;;;;;18.90;9.50;;;;;;;14.88;91.36;101672.34;5009452;28;20061;-76
2023/06/08 06:31:45;;;;;;;17.70;8.23;;;;;;;14.85;91.02;101670.03;4975037;28;20034;-74
2023/06/08 06:34:10;;;;;;;23.08;10.02;;;;;;;14.87;91.19;101665.31;5009471;28;20105;-75
2023/06/08 06:36:36;;;;;;;19.75;9.52;;;;;;;14.91;91.84;101671.13;5009469;28;20061;-75
2023/06/08 06:39:02;;;;;;;26.33;10.18;;;;;;;14.99;91.22;101673.59;4992040;28;20125;-75
2023/06/08 06:41:27;;;;;;;22.33;9.30;;;;;;;15.00;90.93;101669.03;5009399;28;20121;-74
2023/06/08 06:43:52;;;;;;;20.17;9.32;;;;;;;15.07;90.80;101677.94;5009357;28;20121;-74
2023/06/08 06:46:20;;;;;;;19.30;9.82;;;;;;;15.15;90.78;101679.59;5009236;28;20069;-75
2023/06/08 06:48:45;;;;;;;22.30;8.73;;;;;;;15.12;90.88;101678.16;5009131;28;20042;-68
2023/06/08 06:51:11;;;;;;;19.10;9.32;;;;;;;15.21;91.46;101676.06;4991488;28;20536;-72
2023/06/08 06:53:36;;;;;;;21.63;9.70;;;;;;;15.27;90.26;101678.78;5009065;28;20053;-73
2023/06/08 06:56:02;;;;;;;22.63;9.85;;;;;;;15.27;89.92;101678.78;5009072;28;20037;-73
2023/06/08 06:58:28;;;;;;;21.40;10.68;;;;;;;15.32;89.33;101678.13;4991150;28;20528;-73
2023/06/08 07:00:55;;;;;;;19.40;10.25;;;;;;;15.34;91.36;101674.19;5009140;28;20036;-73
2023/06/08 07:03:21;;;;;;;22.88;9.95;;;;;;;15.37;89.70;101681.03;5008913;28;20022;-73
2023/06/08 07:05:47;;;;;;;19.08;9.77;;;;;;;15.37;89.81;101675.66;5009276;28;20045;-73
2023/06/08 07:08:12;;;;;;;19.25;9.77;;;;;;;15.43;90.07;101669.44;5008858;28;20503;-73
2023/06/08 07:10:38;;;;;;;21.58;10.00;;;;;;;15.46;88.66;101668.22;5009049;28;20034;-73
2023/06/08 07:13:03;;;;;;;19.35;9.70;;;;;;;15.45;90.43;101661.16;5010275;28;21035;-73
2023/06/08 07:15:30;;;;;;;19.42;10.70;;;;;;;15.60;89.67;101669.00;5011986;28;20440;-73
2023/06/08 07:17:55;;;;;;;23.55;10.45;;;;;;;15.74;90.62;101681.41;5012073;28;20037;-73
2023/06/08 07:20:20;;;;;;;20.42;9.55;;;;;;;15.70;88.99;101675.63;5012196;28;20049;-73
2023/06/08 07:22:46;;;;;;;18.30;10.10;;;;;;;15.78;89.42;101688.84;5012356;28;20038;-72
2023/06/08 07:25:14;;;;;;;20.05;9.73;;;;;;;15.86;89.89;101690.50;5012418;28;20116;-73
2023/06/08 07:27:39;;;;;;;22.10;10.55;;;;;;;15.85;89.31;101683.47;5011984;28;20608;-73
2023/06/08 07:30:05;;;;;;;25.08;10.48;;;;;;;15.90;88.41;101688.19;5012129;28;20116;-73
2023/06/08 07:32:32;;;;;;;21.98;10.35;;;;;;;15.99;88.35;101678.88;5012198;28;20041;-73
2023/06/08 07:34:58;;;;;;;21.55;10.68;;;;;;;16.07;88.58;101685.88;5012400;28;20056;-73
2023/06/08 07:37:23;;;;;;;21.45;9.85;;;;;;;16.09;87.66;101684.63;5012263;28;20163;-73
2023/06/08 07:39:49;;;;;;;22.02;10.65;;;;;;;16.13;88.53;101693.09;4994175;28;20037;-73
2023/06/08 07:42:14;;;;;;;20.25;11.00;;;;;;;16.16;87.81;101687.28;5011938;28;20100;-73
2023/06/08 07:44:39;;;;;;;20.85;10.02;;;;;;;16.22;87.35;101689.13;5011681;28;20113;-73
2023/06/08 07:47:05;;;;;;;21.25;9.02;;;;;;;16.33;87.51;101685.75;5011754;28;20573;-73
2023/06/08 07:49:30;;;;;;;21.52;9.23;;;;;;;16.39;87.41;101676.81;5011825;28;20034;-73
2023/06/08 07:51:56;;;;;;;20.23;9.88;;;;;;;16.47;87.57;101673.06;5011674;28;20032;-73
2023/06/08 07:54:22;;;;;;;22.38;9.95;;;;;;;16.57;87.73;101670.72;5011640;28;20926;-73
2023/06/08 07:56:48;;;;;;;21.67;10.60;;;;;;;16.64;87.12;101662.63;4977866;28;20868;-73
2023/06/08 07:59:14;;;;;;;20.50;10.27;;;;;;;16.78;87.37;101664.19;5011783;28;20044;-73
2023/06/08 08:01:40;;;;;;;18.88;9.90;;;;;;;16.89;86.63;101651.88;5011546;28;20034;-73
2023/06/08 08:04:06;;;;;;;19.45;11.38;;;;;;;17.03;85.47;101663.41;4977953;28;20037;-73
2023/06/08 08:06:31;;;;;;;23.52;10.88;;;;;;;17.17;86.16;101656.03;5011567;28;20042;-73
2023/06/08 08:08:57;;;;;;;19.67;10.20;;;;;;;17.29;84.55;101660.47;5011027;28;20026;-74
2023/06/08 08:11:22;;;;;;;22.48;12.18;;;;;;;17.72;84.15;101659.63;4993780;28;20045;-73
2023/06/08 08:13:48;;;;;;;16.27;8.70;;;;;;;18.69;79.56;101669.63;5011333;28;20079;-73
2023/06/08 08:16:14;;;;;;;17.70;10.63;;;;;;;20.10;72.54;101669.69;5011125;28;20033;-73
2023/06/08 08:18:39;;;;;;;17.95;8.48;;;;;;;21.93;65.61;101666.72;5010823;28;20370;-73
2023/06/08 08:21:05;;;;;;;17.55;8.63;;;;;;;23.00;59.92;101681.47;5010863;28;20033;-74
2023/06/08 08:23:30;;;;;;;20.60;9.55;;;;;;;23.83;56.71;101673.59;5010837;28;20043;-73
2023/06/08 08:25:55;;;;;;;15.88;8.70;;;;;;;24.38;55.64;101673.22;5011121;28;20091;-73
2023/06/08 08:28:21;;;;;;;14.35;7.88;;;;;;;25.20;51.97;101685.06;4993403;28;20520;-74
2023/06/08 08:30:46;;;;;;;16.27;8.93;;;;;;;25.41;49.95;101685.84;5010518;28;20041;-73
2023/06/08 08:33:12;;;;;;;16.75;7.22;;;;;;;25.94;49.86;101680.81;5011120;28;20992;-73
2023/06/08 08:35:37;;;;;;;20.33;9.27;;;;;;;26.62;46.83;101679.38;5010946;28;20038;-73
2023/06/08 08:38:03;;;;;;;18.55;8.95;;;;;;;26.88;46.65;101669.00;5011247;28;20025;-73
2023/06/08 08:40:28;;;;;;;16.50;8.95;;;;;;;27.39;45.46;101682.28;5010700;28;20473;-73
2023/06/08 08:43:02;;;;;;;17.42;8.80;;;;;;;27.62;45.25;101668.88;4993260;28;20564;-73
2023/06/08 08:45:31;;;;;;;17.60;9.20;;;;;;;27.48;44.08;101676.97;5010496;28;20040;-73
2023/06/08 08:47:57;;;;;;;18.05;9.02;;;;;;;27.23;44.98;101675.31;5010918;28;20640;-72
2023/06/08 08:50:25;;;;;;;16.80;9.05;;;;;;;27.79;44.29;101666.47;5010918;28;20096;-74
2023/06/08 08:52:54;;;;;;;18.50;8.40;;;;;;;27.49;43.65;101667.66;5010806;28;20112;-74
2023/06/08 08:55:27;;;;;;;18.48;8.98;;;;;;;27.30;43.98;101662.91;5010511;28;20025;-74
2023/06/08 08:57:55;;;;;;;19.27;9.25;;;;;;;27.64;44.69;101664.75;5010490;28;20029;-74
2023/06/08 09:00:21;;;;;;;18.30;7.90;;;;;;;27.59;45.51;101653.00;5010512;28;20405;-73
2023/06/08 09:02:48;;;;;;;15.63;7.45;;;;;;;27.83;44.03;101653.84;5010586;28;20038;-72
2023/06/08 09:05:13;;;;;;;11.38;6.88;;;;;;;26.40;46.07;101645.00;5010027;28;20516;-74
2023/06/08 09:07:39;;;;;;;13.55;7.60;;;;;;;25.24;50.32;101647.94;5010245;28;20053;-73
2023/06/08 09:10:30;;;;;;;13.60;6.93;;;;;;;24.33;52.31;101644.03;5010512;28;20496;-73
2023/06/08 09:13:00;;;;;;;15.82;8.18;;;;;;;23.65;55.41;101635.06;5007249;28;20136;-73
2023/06/08 09:15:36;;;;;;;14.90;7.68;;;;;;;22.97;55.76;101644.72;5010604;28;20033;-74
2023/06/08 09:18:16;;;;;;;16.00;8.80;;;;;;;22.23;57.38;101648.09;5010433;28;20026;-74
2023/06/08 09:20:42;;;;;;;14.10;7.68;;;;;;;21.87;59.79;101642.19;5010198;28;20112;-74
2023/06/08 09:23:20;;;;;;;17.75;9.45;;;;;;;21.69;61.23;101647.13;5010030;28;20149;-73
2023/06/08 09:25:47;;;;;;;18.70;8.43;;;;;;;21.65;62.83;101644.09;5009915;28;20058;-73
2023/06/08 09:28:28;;;;;;;18.60;8.95;;;;;;;21.54;63.80;101643.16;4992042;28;20482;-73
2023/06/08 09:30:57;;;;;;;16.57;8.87;;;;;;;21.49;63.13;101640.38;5010186;28;20029;-74
2023/06/08 09:33:24;;;;;;;16.42;8.85;;;;;;;21.28;62.75;101635.69;5009939;28;20022;-74
2023/06/08 09:36:15;;;;;;;18.38;9.45;;;;;;;21.20;63.86;101634.22;5009125;28;20029;-73
2023/06/08 09:38:42;;;;;;;19.08;8.88;;;;;;;21.12;63.17;101637.34;5009964;28;20030;-74
2023/06/08 09:41:17;;;;;;;15.20;8.77;;;;;;;21.18;64.20;101636.34;5009437;28;20637;-74
2023/06/08 09:43:44;;;;;;;16.58;8.73;;;;;;;21.24;64.21;101632.63;5009464;28;20029;-73
2023/06/08 09:46:13;;;;;;;15.75;8.38;;;;;;;21.23;63.69;101636.44;5009833;28;20072;-73
2023/06/08 09:48:58;;;;;;;18.83;9.50;;;;;;;21.17;64.61;101637.44;5010300;28;20128;-73
2023/06/08 09:51:24;;;;;;;15.95;8.77;;;;;;;20.98;64.36;101640.38;4991649;28;20125;-74
2023/06/08 09:53:58;;;;;;;18.48;9.77;;;;;;;20.71;63.66;101645.63;4992100;28;20033;-73
2023/06/08 09:56:25;;;;;;;17.77;9.50;;;;;;;20.36;65.49;101646.63;5009537;28;20941;-73
2023/06/08 09:58:53;;;;;;;19.08;9.15;;;;;;;20.13;66.38;101644.81;5009684;28;20030;-73
2023/06/08 10:01:25;;;;;;;24.90;10.40;;;;;;;20.07;66.25;101639.56;4991800;28;20026;-73
2023/06/08 10:03:53;;;;;;;20.02;10.65;;;;;;;19.96;66.66;101641.22;5009576;28;20026;-73
2023/06/08 10:06:20;;;;;;;18.67;7.00;;;;;;;19.81;65.94;101647.16;5009581;28;20040;-74
2023/06/08 10:08:50;;;;;;;16.15;8.63;;;;;;;19.85;67.55;101636.66;5009502;28;20109;-73
2023/06/08 10:11:16;;;;;;;16.27;7.50;;;;;;;19.87;67.30;101634.56;5009524;28;20488;-73
2023/06/08 10:13:42;;;;;;;16.92;8.18;;;;;;;19.78;65.76;101636.81;5009633;28;20030;-74
2023/06/08 10:16:08;;;;;;;18.50;8.38;;;;;;;19.78;65.08;101633.25;5009496;28;20041;-74
2023/06/08 10:18:35;;;;;;;15.57;7.75;;;;;;;19.76;67.16;101627.28;5009828;28;20472;-74
2023/06/08 10:21:03;;;;;;;14.93;8.68;;;;;;;19.70;67.22;101627.19;4992020;28;20045;-73
2023/06/08 10:23:30;;;;;;;20.08;8.90;;;;;;;19.69;65.80;101624.69;4991309;28;20385;-74
2023/06/08 10:25:57;;;;;;;17.63;8.18;;;;;;;19.57;66.32;101618.44;5009079;28;20038;-74
2023/06/08 10:28:22;;;;;;;20.30;10.13;;;;;;;19.64;66.98;101627.25;5009165;28;20073;-74
2023/06/08 10:30:47;;;;;;;14.90;6.95;;;;;;;19.86;67.92;101628.31;4991537;28;20420;-74
2023/06/08 10:33:22;;;;;;;16.55;8.30;;;;;;;20.18;66.09;101622.44;5008951;28;20117;-74
2023/06/08 10:36:06;;;;;;;13.00;7.03;;;;;;;20.37;66.70;101620.34;5009153;28;20034;-74
2023/06/08 10:38:38;;;;;;;20.23;8.27;;;;;;;20.48;67.22;101614.03;4991402;28;20428;-74
2023/06/08 10:41:04;;;;;;;16.45;7.47;;;;;;;20.66;65.84;101612.19;5009390;28;20045;-73
2023/06/08 10:43:29;;;;;;;18.17;8.93;;;;;;;20.98;66.39;101613.25;5009344;28;20904;-73
2023/06/08 10:45:55;;;;;;;17.40;8.00;;;;;;;21.24;62.60;101602.78;5009235;28;20030;-75
2023/06/08 10:48:21;;;;;;;16.48;8.07;;;;;;;21.45;63.88;101606.66;4978497;28;20084;-73
2023/06/08 10:50:49;;;;;;;15.68;7.43;;;;;;;21.76;63.42;101599.72;5012146;28;20088;-74
2023/06/08 10:53:40;;;;;;;21.52;9.27;;;;;;;21.95;61.89;101599.38;4995632;28;20033;-74
2023/06/08 10:56:06;;;;;;;13.02;6.90;;;;;;;22.08;59.42;101601.69;5012733;28;20076;-75
2023/06/08 10:58:49;;;;;;;16.23;7.43;;;;;;;22.14;61.09;101595.25;5013106;28;20042;-74
2023/06/08 11:01:19;;;;;;;16.73;7.85;;;;;;;21.95;60.73;101600.19;5012295;28;20053;-74
2023/06/08 11:03:47;;;;;;;13.88;7.20;;;;;;;21.60;61.13;101601.41;5012574;28;20072;-74
2023/06/08 11:06:14;;;;;;;17.27;7.93;;;;;;;21.66;60.79;101596.88;5012427;28;20030;-74
2023/06/08 11:08:39;;;;;;;14.90;7.75;;;;;;;21.47;60.86;101590.13;5012503;28;20038;-74
2023/06/08 11:11:05;;;;;;;13.52;6.93;;;;;;;21.47;60.39;101590.94;4995452;28;20224;-74
2023/06/08 11:13:31;;;;;;;19.80;8.15;;;;;;;21.59;62.62;101582.69;5012704;28;20025;-74
2023/06/08 11:15:56;;;;;;;15.57;7.75;;;;;;;21.65;61.50;101577.03;5012435;28;20026;-74